Time;durP1;ratioP1;P1;durP2;ratioP2;P2;SDS_P1;SDS_P2;PMS_P1;PMS_P2;Temp;Humidity;BMP_temperature;BMP_pressure;BME280_temperature;BME280_humidity;BME280_pressure;Samples;Min_cycle;Max_cycle;Signal;HPM_P1;HPM_P2
2021/07/22 00:01:34;;;;;;;10.95;7.60;;;;;;;16.47;70.36;100965.91;5116447;28;20051;-65
2021/07/22 00:04:01;;;;;;;10.20;8.43;;;;;;;16.39;70.49;100950.75;5112773;28;20051;-65
2021/07/22 00:06:28;;;;;;;12.18;8.93;;;;;;;16.33;70.57;100958.56;5116001;28;20412;-65
2021/07/22 00:08:57;;;;;;;11.88;8.32;;;;;;;16.35;70.67;100955.41;5132984;28;20047;-65
2021/07/22 00:11:24;;;;;;;11.82;8.02;;;;;;;16.31;70.63;100954.44;5131088;28;20051;-65
2021/07/22 00:13:52;;;;;;;12.55;8.52;;;;;;;16.30;70.71;100952.81;5131198;28;20078;-65
2021/07/22 00:16:19;;;;;;;11.90;8.18;;;;;;;16.25;70.75;100962.25;5115017;28;20515;-65
2021/07/22 00:18:46;;;;;;;10.57;7.88;;;;;;;16.18;70.96;100959.97;5116378;28;20060;-64
2021/07/22 00:21:16;;;;;;;12.02;8.25;;;;;;;16.14;71.03;100956.22;5126625;27;20047;-64
2021/07/22 00:23:44;;;;;;;11.90;8.68;;;;;;;16.12;70.97;100952.91;5125401;27;20426;-64
2021/07/22 00:26:13;;;;;;;10.55;7.90;;;;;;;16.08;71.57;100940.72;5116278;28;20062;-64
2021/07/22 00:28:40;;;;;;;12.10;8.00;;;;;;;16.13;71.04;100948.13;5117020;28;20484;-64
2021/07/22 00:31:08;;;;;;;14.98;8.90;;;;;;;16.09;71.10;100955.59;5122129;27;20047;-64
2021/07/22 00:33:35;;;;;;;11.38;8.57;;;;;;;16.05;71.15;100949.00;5129107;27;20487;-64
2021/07/22 00:36:07;;;;;;;11.13;8.05;;;;;;;16.07;70.88;100944.69;5116705;27;20051;-64
2021/07/22 00:38:35;;;;;;;12.88;8.15;;;;;;;16.03;70.72;100943.72;5116759;28;20047;-64
2021/07/22 00:41:02;;;;;;;13.07;7.90;;;;;;;16.00;70.88;100948.03;5119598;27;20048;-64
2021/07/22 00:43:31;;;;;;;13.13;8.45;;;;;;;15.91;71.46;100952.06;5132264;27;20051;-64
2021/07/22 00:45:58;;;;;;;12.65;7.88;;;;;;;15.91;71.75;100952.06;5135227;27;20058;-64
2021/07/22 00:48:26;;;;;;;11.82;8.65;;;;;;;15.86;72.28;100946.66;5136389;27;20055;-64
2021/07/22 00:50:53;;;;;;;10.32;8.07;;;;;;;15.85;71.98;100947.78;5127293;27;20058;-64
2021/07/22 00:53:29;;;;;;;13.68;8.82;;;;;;;15.73;72.69;100943.72;5124596;27;20051;-64
2021/07/22 00:55:56;;;;;;;12.88;8.50;;;;;;;15.76;72.75;100945.03;5119162;27;20055;-64
2021/07/22 00:58:24;;;;;;;12.93;9.27;;;;;;;15.68;73.14;100937.44;5116582;28;20051;-65
2021/07/22 01:00:52;;;;;;;12.38;9.27;;;;;;;15.70;72.99;100938.75;5132667;27;20051;-64
2021/07/22 01:03:20;;;;;;;12.82;8.98;;;;;;;15.68;72.55;100940.25;5114257;27;20408;-64
2021/07/22 01:05:47;;;;;;;13.88;9.15;;;;;;;15.60;72.73;100944.72;5121360;27;20483;-64
2021/07/22 01:08:14;;;;;;;12.52;8.55;;;;;;;15.64;72.37;100942.91;5115674;28;20418;-64
2021/07/22 01:10:42;;;;;;;12.93;8.48;;;;;;;15.64;72.36;100951.31;5115801;28;20419;-64
2021/07/22 01:13:09;;;;;;;12.32;8.38;;;;;;;15.63;72.28;100941.25;5115827;28;20484;-64
2021/07/22 01:15:36;;;;;;;15.15;9.13;;;;;;;15.62;72.20;100948.03;5118930;27;20507;-64
2021/07/22 01:18:05;;;;;;;17.38;9.73;;;;;;;15.57;72.53;100948.22;5116234;27;20396;-64
2021/07/22 01:20:34;;;;;;;14.57;9.13;;;;;;;15.56;72.54;100947.41;5130663;27;20510;-64
2021/07/22 01:23:01;;;;;;;13.75;9.02;;;;;;;15.57;72.11;100937.00;5116397;27;20408;-64
2021/07/22 01:25:29;;;;;;;12.77;8.10;;;;;;;15.57;71.96;100948.22;5119776;27;20051;-64
2021/07/22 01:27:57;;;;;;;12.85;9.15;;;;;;;15.56;71.64;100938.97;5114746;28;20058;-64
2021/07/22 01:30:25;;;;;;;11.50;7.82;;;;;;;15.57;71.69;100937.00;5131192;27;20054;-64
2021/07/22 01:32:53;;;;;;;12.88;8.57;;;;;;;15.50;71.92;100939.50;5119346;27;20062;-64
2021/07/22 01:35:21;;;;;;;11.52;8.13;;;;;;;15.44;72.01;100941.69;5129538;27;20051;-64
2021/07/22 01:37:50;;;;;;;11.80;7.68;;;;;;;15.40;72.00;100935.91;5117196;27;20048;-64
2021/07/22 01:40:18;;;;;;;11.93;8.40;;;;;;;15.26;72.98;100934.47;5122726;27;20035;-64
2021/07/22 01:42:46;;;;;;;11.10;8.45;;;;;;;15.26;73.13;100926.88;5115073;28;20483;-64
2021/07/22 01:45:14;;;;;;;10.55;7.45;;;;;;;15.28;73.00;100927.34;5119433;27;20050;-64
2021/07/22 01:47:41;;;;;;;11.85;8.57;;;;;;;15.33;73.22;100932.78;5116324;27;20051;-64
2021/07/22 01:50:10;;;;;;;12.40;8.70;;;;;;;15.35;72.87;100924.03;5118492;27;20051;-64
2021/07/22 01:52:38;;;;;;;14.00;9.10;;;;;;;15.32;73.25;100919.91;5104598;28;20047;-66
2021/07/22 01:55:07;;;;;;;13.25;8.95;;;;;;;15.33;73.38;100924.38;5114559;27;20052;-64
2021/07/22 01:57:35;;;;;;;14.85;9.38;;;;;;;15.34;73.37;100916.78;5127421;27;20058;-64
2021/07/22 02:00:05;;;;;;;13.02;9.55;;;;;;;15.36;73.16;100920.88;5128855;27;20047;-64
2021/07/22 02:02:33;;;;;;;13.27;8.93;;;;;;;15.34;72.70;100917.59;5113641;27;20063;-64
2021/07/22 02:05:00;;;;;;;13.93;10.40;;;;;;;15.22;73.23;100912.69;5117999;27;20055;-64
2021/07/22 02:07:27;;;;;;;12.15;9.07;;;;;;;15.26;73.18;100910.03;5122256;27;20052;-64
2021/07/22 02:09:55;;;;;;;13.90;9.05;;;;;;;15.27;73.34;100908.88;5116379;27;20051;-64
2021/07/22 02:12:23;;;;;;;16.63;9.00;;;;;;;15.25;73.09;100908.38;5134451;27;20047;-64
2021/07/22 02:14:51;;;;;;;13.52;9.20;;;;;;;15.26;73.25;100910.03;5131464;27;20073;-64
2021/07/22 02:17:19;;;;;;;13.05;8.45;;;;;;;15.29;73.50;100917.78;5120144;27;20047;-64
2021/07/22 02:19:46;;;;;;;12.30;9.02;;;;;;;15.27;73.62;100908.06;5133497;27;20141;-64
2021/07/22 02:22:17;;;;;;;13.60;8.63;;;;;;;15.23;73.91;100913.50;5133620;27;20051;-65
2021/07/22 02:24:45;;;;;;;12.20;8.30;;;;;;;15.20;73.47;100902.94;5124865;27;20070;-65
2021/07/22 02:27:12;;;;;;;12.82;8.82;;;;;;;15.22;73.35;100904.28;5133674;27;20054;-65
2021/07/22 02:29:41;;;;;;;12.38;8.50;;;;;;;15.22;73.17;100911.84;5117409;27;20046;-65
2021/07/22 02:32:09;;;;;;;12.30;8.95;;;;;;;15.21;73.19;100918.63;5113449;27;20040;-65
2021/07/22 02:34:36;;;;;;;11.02;8.73;;;;;;;15.18;73.46;100908.91;5120619;27;20058;-65
2021/07/22 02:37:04;;;;;;;12.85;8.90;;;;;;;15.22;73.60;100915.50;5127081;27;20055;-65
2021/07/22 02:39:31;;;;;;;12.65;8.00;;;;;;;15.19;73.54;100913.34;5133051;27;20492;-65
2021/07/22 02:41:59;;;;;;;11.13;8.40;;;;;;;15.20;73.01;100911.34;5112931;28;20043;-65
2021/07/22 02:44:26;;;;;;;12.73;8.95;;;;;;;15.17;73.14;100921.28;5114095;28;20205;-65
2021/07/22 02:46:54;;;;;;;14.20;8.38;;;;;;;15.17;73.27;100921.28;5113411;27;20051;-65
2021/07/22 02:49:22;;;;;;;12.15;7.95;;;;;;;15.17;72.91;100924.09;5113698;27;20058;-65
2021/07/22 02:51:49;;;;;;;12.98;8.82;;;;;;;15.22;73.01;100920.28;5133005;27;20047;-65
2021/07/22 02:54:16;;;;;;;11.45;7.88;;;;;;;15.23;72.38;100922.75;5124397;27;20062;-65
2021/07/22 02:56:44;;;;;;;12.32;8.27;;;;;;;15.23;72.10;100927.53;5113246;28;20074;-65
2021/07/22 02:59:11;;;;;;;12.50;7.80;;;;;;;15.21;72.11;100929.88;5126819;27;20059;-65
2021/07/22 03:01:38;;;;;;;11.60;7.38;;;;;;;15.22;72.26;100931.50;5112981;27;20039;-65
2021/07/22 03:04:07;;;;;;;9.15;7.53;;;;;;;15.25;72.48;100925.22;5113543;27;20075;-65
2021/07/22 03:06:35;;;;;;;11.18;7.28;;;;;;;15.31;72.29;100928.69;5127751;27;20058;-65
2021/07/22 03:09:02;;;;;;;12.15;8.27;;;;;;;15.32;72.21;100922.72;5116673;27;20062;-65
2021/07/22 03:11:29;;;;;;;12.98;8.02;;;;;;;15.37;72.59;100925.34;5129485;27;20415;-65
2021/07/22 03:13:58;;;;;;;13.48;8.02;;;;;;;15.40;72.82;100927.47;5133977;27;20128;-65
2021/07/22 03:16:25;;;;;;;11.43;7.80;;;;;;;15.43;72.80;100926.81;5117086;27;20043;-65
2021/07/22 03:18:53;;;;;;;12.70;7.75;;;;;;;15.50;73.19;100925.47;5125136;27;20054;-65
2021/07/22 03:21:21;;;;;;;13.52;8.32;;;;;;;15.59;72.71;100923.44;5132757;27;20059;-65
2021/07/22 03:23:49;;;;;;;11.37;7.90;;;;;;;15.65;72.77;100918.47;5122869;27;20399;-65
2021/07/22 03:26:18;;;;;;;10.77;8.25;;;;;;;15.75;72.49;100920.94;5119590;27;20052;-65
2021/07/22 03:28:45;;;;;;;9.55;7.70;;;;;;;15.83;71.95;100918.06;5113218;28;20051;-65
2021/07/22 03:31:16;;;;;;;11.30;7.45;;;;;;;15.91;71.64;100912.72;5114591;27;20051;-65
2021/07/22 03:33:43;;;;;;;10.77;7.57;;;;;;;16.00;71.27;100916.28;5119341;27;20053;-65
2021/07/22 03:36:11;;;;;;;10.18;6.95;;;;;;;16.05;70.77;100918.91;5117237;27;20498;-65
2021/07/22 03:38:39;;;;;;;11.18;7.53;;;;;;;16.08;70.73;100918.22;5132250;27;20051;-65
2021/07/22 03:41:06;;;;;;;11.98;7.90;;;;;;;16.10;70.90;100907.47;5128870;27;20053;-65
2021/07/22 03:43:34;;;;;;;12.38;8.07;;;;;;;16.12;71.23;100902.31;5112857;28;20055;-65
2021/07/22 03:46:01;;;;;;;10.70;7.32;;;;;;;16.20;71.39;100901.44;5116023;28;20058;-65
2021/07/22 03:48:28;;;;;;;11.27;8.43;;;;;;;16.25;71.28;100900.41;5116139;27;20411;-66
2021/07/22 03:50:56;;;;;;;12.95;8.55;;;;;;;16.23;71.29;100900.78;5132709;27;20058;-65
2021/07/22 03:53:23;;;;;;;11.93;8.38;;;;;;;16.24;71.22;100899.59;5131166;27;20043;-65
2021/07/22 03:55:52;;;;;;;11.52;7.93;;;;;;;16.32;71.40;100905.50;5111538;28;20051;-65
2021/07/22 03:58:21;;;;;;;11.32;8.30;;;;;;;16.40;71.41;100904.63;5112541;28;20062;-65
2021/07/22 04:00:48;;;;;;;12.32;8.32;;;;;;;16.47;70.85;100899.25;5112357;28;20062;-65
2021/07/22 04:03:15;;;;;;;11.85;7.93;;;;;;;16.52;70.65;100904.66;5115961;28;20518;-65
2021/07/22 04:05:43;;;;;;;13.32;8.23;;;;;;;16.58;70.28;100905.28;5115303;28;20052;-65
2021/07/22 04:08:10;;;;;;;11.68;7.53;;;;;;;16.62;70.13;100909.03;5112644;28;20610;-65
2021/07/22 04:10:37;;;;;;;11.05;7.82;;;;;;;16.66;69.94;100903.56;5121559;28;20055;-65
2021/07/22 04:13:06;;;;;;;10.98;7.30;;;;;;;16.72;70.11;100908.63;5130865;28;20054;-65
2021/07/22 04:15:34;;;;;;;11.85;8.35;;;;;;;16.76;69.89;100914.38;5116280;28;20058;-65
2021/07/22 04:18:01;;;;;;;10.50;7.68;;;;;;;16.78;70.28;100906.44;5124521;28;20059;-65
2021/07/22 04:20:29;;;;;;;10.25;7.97;;;;;;;16.78;70.30;100906.44;5123397;28;20055;-65
2021/07/22 04:22:59;;;;;;;11.57;7.72;;;;;;;16.95;70.35;100906.28;5112217;28;20048;-65
2021/07/22 04:25:26;;;;;;;19.65;8.07;;;;;;;17.07;69.80;100913.91;5118175;28;20387;-65
2021/07/22 04:27:53;;;;;;;12.23;7.00;;;;;;;17.18;68.86;100905.88;5122950;28;20052;-65
2021/07/22 04:30:22;;;;;;;11.27;7.72;;;;;;;17.27;68.37;100912.22;5113046;28;20059;-65
2021/07/22 04:32:51;;;;;;;12.05;8.55;;;;;;;17.33;68.37;100904.38;5129078;28;20054;-65
2021/07/22 04:35:18;;;;;;;13.13;8.45;;;;;;;17.21;68.56;100905.97;5113651;28;20480;-65
2021/07/22 04:37:45;;;;;;;12.30;7.88;;;;;;;17.38;68.14;100907.75;5126497;28;20502;-65
2021/07/22 04:40:13;;;;;;;10.68;7.03;;;;;;;17.44;67.55;100903.53;5132014;28;20046;-65
2021/07/22 04:42:40;;;;;;;11.43;7.78;;;;;;;17.54;67.32;100901.44;5117715;28;20051;-65
2021/07/22 04:45:09;;;;;;;11.90;8.25;;;;;;;17.54;67.37;100907.91;5115312;28;20051;-65
2021/07/22 04:47:38;;;;;;;10.80;7.30;;;;;;;17.67;66.94;100907.91;5112245;28;20064;-65
2021/07/22 04:50:06;;;;;;;9.87;7.20;;;;;;;17.75;66.49;100904.16;5111357;28;20056;-65
2021/07/22 04:52:34;;;;;;;11.40;7.45;;;;;;;17.82;66.21;100904.38;5111678;28;20492;-65
2021/07/22 04:55:01;;;;;;;14.52;7.47;;;;;;;17.90;65.62;100911.09;5124141;28;20523;-65
2021/07/22 04:57:28;;;;;;;10.73;7.60;;;;;;;17.95;65.58;100908.84;5095540;28;20089;-65
2021/07/22 04:59:56;;;;;;;10.63;7.93;;;;;;;17.99;65.61;100908.97;5091340;28;20384;-66
2021/07/22 05:02:23;;;;;;;12.63;7.80;;;;;;;18.01;65.53;100912.25;5095412;28;20044;-66
2021/07/22 05:04:52;;;;;;;10.77;7.97;;;;;;;18.13;65.57;100911.41;5101448;28;20043;-66
2021/07/22 05:07:19;;;;;;;10.40;7.43;;;;;;;18.21;65.27;100908.47;5100913;28;20052;-66
2021/07/22 05:09:46;;;;;;;13.55;7.10;;;;;;;18.31;64.75;100903.50;5114725;28;20481;-66
2021/07/22 05:12:14;;;;;;;12.55;7.38;;;;;;;18.38;64.59;100903.72;5098057;28;20052;-66
2021/07/22 05:14:41;;;;;;;11.45;7.75;;;;;;;18.50;64.27;100916.94;5094733;28;20137;-66
2021/07/22 05:17:09;;;;;;;10.38;7.35;;;;;;;18.60;64.04;100907.97;5094031;28;20068;-66
2021/07/22 05:19:36;;;;;;;10.07;7.38;;;;;;;18.71;63.73;100909.13;5094001;28;20062;-66
2021/07/22 05:22:06;;;;;;;11.23;7.72;;;;;;;18.74;63.81;100901.94;5093277;28;20408;-66
2021/07/22 05:24:33;;;;;;;;;;;;;;;18.81;63.25;100905.00;5104678;28;20052;-66
2021/07/22 05:27:00;;;;;;;12.48;8.15;;;;;;;18.94;62.97;100889.66;5095265;28;19920;-66
2021/07/22 05:29:28;;;;;;;9.32;7.28;;;;;;;19.09;62.56;100899.31;5093610;28;20062;-66
2021/07/22 05:31:56;;;;;;;10.95;7.97;;;;;;;19.21;61.79;100904.06;5098636;28;20052;-66
2021/07/22 05:34:23;;;;;;;9.52;7.57;;;;;;;19.33;61.99;100908.81;5097507;28;20088;-66
2021/07/22 05:36:51;;;;;;;12.40;8.10;;;;;;;19.41;61.28;100905.81;5095138;28;20518;-66
2021/07/22 05:39:20;;;;;;;11.95;7.47;;;;;;;19.34;61.54;100902.81;5094271;28;20055;-58
2021/07/22 05:41:47;;;;;;;11.00;8.80;;;;;;;19.06;62.84;100900.84;5097609;28;20067;-59
2021/07/22 05:44:14;;;;;;;12.45;9.07;;;;;;;18.94;62.61;100898.13;5098175;28;20047;-59
2021/07/22 05:46:42;;;;;;;12.18;8.07;;;;;;;18.58;64.56;100901.88;5093858;28;20052;-59
2021/07/22 05:49:10;;;;;;;10.43;7.32;;;;;;;19.10;63.04;100895.31;5095260;28;20052;-59
2021/07/22 05:51:40;;;;;;;12.00;8.60;;;;;;;19.54;61.01;100895.22;5100850;28;20044;-58
2021/07/22 05:54:09;;;;;;;;;;;;;;;19.77;60.83;100892.59;5104344;28;20052;-58
2021/07/22 05:56:38;;;;;;;12.02;8.27;;;;;;;19.91;60.75;100894.13;5117176;27;20287;-61
2021/07/22 05:59:05;;;;;;;11.07;8.05;;;;;;;19.92;60.85;100890.94;5113007;28;20052;-59
2021/07/22 06:01:33;;;;;;;14.82;8.90;;;;;;;19.96;60.62;100899.50;5127182;27;20387;-61
2021/07/22 06:04:00;;;;;;;13.55;8.73;;;;;;;20.21;60.23;100897.25;5116131;27;20070;-60
2021/07/22 06:06:28;;;;;;;11.18;8.15;;;;;;;20.22;59.97;100901.69;5126639;27;20048;-60
2021/07/22 06:08:55;;;;;;;12.30;8.15;;;;;;;20.45;59.36;100896.97;5116620;27;20055;-59
2021/07/22 06:11:22;;;;;;;11.43;8.07;;;;;;;20.49;59.22;100897.03;5115697;27;20048;-60
2021/07/22 06:13:51;;;;;;;11.00;7.93;;;;;;;20.77;58.61;100896.03;5110634;27;20047;-61
2021/07/22 06:16:18;;;;;;;14.48;8.77;;;;;;;20.93;58.26;100896.75;5112547;27;20054;-61
2021/07/22 06:18:46;;;;;;;11.95;7.95;;;;;;;20.48;59.80;100896.22;5112578;27;20415;-57
2021/07/22 06:21:16;;;;;;;10.52;7.88;;;;;;;20.68;59.09;100888.59;5111868;27;20055;-61
2021/07/22 06:23:44;;;;;;;9.77;7.68;;;;;;;21.24;57.63;100889.22;5112071;27;20043;-57
2021/07/22 06:26:12;;;;;;;11.37;8.10;;;;;;;21.35;56.72;100898.72;5110585;27;20077;-59
2021/07/22 06:28:39;;;;;;;11.68;8.38;;;;;;;21.83;55.50;100898.34;5113571;27;20051;-66
2021/07/22 06:31:08;;;;;;;12.90;7.85;;;;;;;22.17;54.80;100893.56;5106463;27;20782;-66
2021/07/22 06:33:35;;;;;;;9.73;7.40;;;;;;;22.50;54.38;100892.03;5112996;27;20044;-66
2021/07/22 06:36:03;;;;;;;10.00;8.02;;;;;;;22.80;53.17;100891.97;5113917;27;20054;-66
2021/07/22 06:38:33;;;;;;;15.30;8.52;;;;;;;22.98;52.42;100892.19;5112186;27;20483;-66
2021/07/22 06:41:00;;;;;;;13.43;8.57;;;;;;;23.20;52.49;100886.75;5113674;27;20070;-67
2021/07/22 06:43:29;;;;;;;11.32;8.90;;;;;;;23.34;52.53;100886.88;5114269;27;20424;-67
2021/07/22 06:45:56;;;;;;;11.27;8.65;;;;;;;23.54;52.55;100892.34;5113694;27;20496;-67
2021/07/22 06:48:28;;;;;;;11.05;7.93;;;;;;;23.75;51.13;100901.06;5111165;27;20078;-67
2021/07/22 06:50:56;;;;;;;12.68;7.90;;;;;;;23.85;51.04;100899.53;5115731;27;20055;-68
2021/07/22 06:53:23;;;;;;;13.80;8.02;;;;;;;24.01;50.25;100890.69;5115745;27;20054;-68
2021/07/22 06:55:52;;;;;;;11.65;8.30;;;;;;;24.09;51.10;100895.22;5121201;27;20059;-68
2021/07/22 06:58:20;;;;;;;10.20;7.60;;;;;;;24.25;50.38;100890.03;5111174;27;20078;-68
2021/07/22 07:00:47;;;;;;;11.30;8.40;;;;;;;24.49;50.22;100885.69;5120274;27;20059;-68
2021/07/22 07:03:15;;;;;;;9.85;7.75;;;;;;;24.52;50.04;100884.06;5113298;27;20510;-68
2021/07/22 07:05:43;;;;;;;11.88;8.52;;;;;;;24.79;48.91;100878.88;5115137;27;20044;-68
2021/07/22 07:08:11;;;;;;;12.20;8.48;;;;;;;24.94;49.08;100879.75;5113319;27;20052;-68
2021/07/22 07:10:38;;;;;;;13.23;8.75;;;;;;;25.14;48.70;100882.25;5122275;27;20047;-68
2021/07/22 07:13:05;;;;;;;12.52;8.13;;;;;;;25.24;49.10;100881.44;5110327;27;20506;-68
2021/07/22 07:15:33;;;;;;;10.55;7.38;;;;;;;25.39;49.16;100877.41;5111490;27;20492;-68
2021/07/22 07:18:03;;;;;;;13.13;8.70;;;;;;;25.41;48.58;100886.38;5131590;27;20059;-68
2021/07/22 07:20:31;;;;;;;11.95;8.20;;;;;;;25.42;48.80;100890.03;5113374;27;20474;-68
2021/07/22 07:22:59;;;;;;;11.43;8.43;;;;;;;25.37;48.09;100888.41;5118732;27;20055;-68
2021/07/22 07:25:27;;;;;;;13.50;9.20;;;;;;;25.34;48.12;100880.66;5122985;27;20479;-67
2021/07/22 07:27:55;;;;;;;13.23;8.07;;;;;;;25.30;48.03;100896.94;5117901;27;20511;-67
2021/07/22 07:30:22;;;;;;;11.18;8.38;;;;;;;25.23;48.73;100891.22;5112907;27;20043;-67
2021/07/22 07:32:52;;;;;;;12.73;8.40;;;;;;;25.27;47.78;100886.34;5123724;27;20051;-68
2021/07/22 07:35:19;;;;;;;10.40;7.93;;;;;;;25.25;48.15;100891.66;5115587;27;20052;-68
2021/07/22 07:37:47;;;;;;;12.50;8.30;;;;;;;25.22;47.06;100903.84;5115028;27;20051;-68
2021/07/22 07:40:16;;;;;;;14.63;8.50;;;;;;;25.23;47.68;100889.19;5112084;27;20070;-68
2021/07/22 07:42:44;;;;;;;12.02;8.63;;;;;;;25.10;47.76;100885.88;5119054;27;20047;-68
2021/07/22 07:45:11;;;;;;;12.40;8.55;;;;;;;25.09;47.39;100891.97;5123488;27;20070;-67
2021/07/22 07:47:39;;;;;;;12.77;8.38;;;;;;;25.03;47.68;100891.59;5114684;27;20059;-67
2021/07/22 07:50:15;;;;;;;11.82;7.88;;;;;;;24.92;48.57;100890.72;5123329;27;20051;-67
2021/07/22 07:52:43;;;;;;;13.25;7.93;;;;;;;24.97;48.60;100884.66;5118443;27;20056;-67
2021/07/22 07:55:11;;;;;;;13.73;8.65;;;;;;;24.79;49.12;100884.59;5111625;28;20107;-67
2021/07/22 07:57:40;;;;;;;14.23;8.00;;;;;;;24.63;49.24;100893.50;5114900;27;20050;-67
2021/07/22 08:00:09;;;;;;;11.05;7.70;;;;;;;24.64;49.13;100895.13;5126662;28;20062;-67
2021/07/22 08:02:36;;;;;;;11.02;7.05;;;;;;;24.61;48.78;100880.84;5115095;28;20047;-67
2021/07/22 08:05:04;;;;;;;12.85;7.85;;;;;;;24.59;48.74;100897.53;5111804;28;20055;-67
2021/07/22 08:07:31;;;;;;;10.20;7.40;;;;;;;24.56;49.02;100898.34;5122989;27;20058;-67
2021/07/22 08:09:59;;;;;;;16.35;8.15;;;;;;;24.56;49.56;100895.50;5129152;28;20070;-67
2021/07/22 08:12:26;;;;;;;13.45;9.13;;;;;;;24.57;49.36;100894.25;5125413;27;20113;-67
2021/07/22 08:14:55;;;;;;;14.23;8.70;;;;;;;24.55;49.64;100891.84;5142386;27;20050;-67
2021/07/22 08:17:25;;;;;;;14.00;8.60;;;;;;;24.49;49.94;100893.44;5140472;27;20047;-67
2021/07/22 08:19:57;;;;;;;13.60;7.93;;;;;;;24.41;50.25;100886.84;5129101;28;20181;-67
2021/07/22 08:22:25;;;;;;;12.18;8.05;;;;;;;24.41;50.45;100888.88;5119164;28;20047;-67
2021/07/22 08:24:52;;;;;;;12.85;8.27;;;;;;;24.46;50.01;100886.47;5125873;28;20468;-67
2021/07/22 08:27:26;;;;;;;12.10;7.78;;;;;;;24.39;49.99;100885.63;5129159;27;20050;-67
2021/07/22 08:29:54;;;;;;;14.57;7.95;;;;;;;24.47;50.08;100887.28;5117535;28;20052;-67
2021/07/22 08:32:22;;;;;;;13.15;8.23;;;;;;;24.63;50.15;100886.97;5113731;28;20055;-67
2021/07/22 08:34:49;;;;;;;12.75;7.50;;;;;;;24.78;49.78;100882.13;5116385;28;20047;-67
2021/07/22 08:37:17;;;;;;;15.93;8.02;;;;;;;24.96;48.72;100885.03;5125502;28;20043;-67
2021/07/22 08:39:46;;;;;;;12.10;8.18;;;;;;;25.07;49.30;100878.16;5131605;27;20497;-67
2021/07/22 08:42:14;;;;;;;;;;;;;;;25.31;48.75;100890.03;5121289;27;20044;-67
2021/07/22 08:44:42;;;;;;;10.75;8.00;;;;;;;25.59;46.79;100886.34;5119607;27;19931;-67
2021/07/22 08:47:12;;;;;;;11.65;7.53;;;;;;;25.80;45.48;100888.38;5119806;27;20386;-67
2021/07/22 08:49:40;;;;;;;12.20;7.68;;;;;;;25.94;44.99;100886.78;5127562;27;20407;-67
2021/07/22 08:52:09;;;;;;;14.25;8.25;;;;;;;26.28;44.49;100881.38;5122411;27;20052;-67
2021/07/22 08:54:36;;;;;;;11.07;7.57;;;;;;;26.41;44.95;100888.28;5130649;27;20040;-67
2021/07/22 08:57:08;;;;;;;10.35;7.50;;;;;;;26.70;42.84;100886.13;5122275;27;20043;-67
2021/07/22 08:59:35;;;;;;;14.20;8.40;;;;;;;27.07;42.14;100881.06;5133042;27;20550;-67
2021/07/22 09:02:04;;;;;;;12.20;7.88;;;;;;;27.21;41.86;100869.50;5124577;27;20043;-67
2021/07/22 09:04:49;;;;;;;10.95;7.70;;;;;;;27.67;41.17;100878.97;5116122;28;20051;-67
2021/07/22 09:07:19;;;;;;;11.20;7.68;;;;;;;28.08;39.20;100881.06;5127332;27;20051;-67
2021/07/22 09:10:12;;;;;;;10.30;7.72;;;;;;;28.46;38.92;100872.44;5123360;27;20052;-67
2021/07/22 09:12:41;;;;;;;9.98;7.75;;;;;;;28.86;37.53;100862.09;5125373;27;20043;-67
2021/07/22 09:15:10;;;;;;;12.57;8.25;;;;;;;29.24;37.37;100869.75;5116175;27;20065;-67
2021/07/22 09:17:38;;;;;;;10.65;7.85;;;;;;;29.57;36.50;100864.28;5121726;27;20051;-67
2021/07/22 09:20:13;;;;;;;10.32;8.02;;;;;;;29.94;36.47;100869.81;5134027;27;20058;-67
2021/07/22 09:22:42;;;;;;;10.25;7.88;;;;;;;30.41;36.19;100876.72;5133950;27;20054;-67
2021/07/22 09:25:10;;;;;;;;;;;;;;;31.02;34.15;100869.69;5118905;27;20051;-67
2021/07/22 09:27:42;;;;;;;11.73;7.70;;;;;;;31.12;33.62;100880.09;5121568;27;19919;-67
2021/07/22 09:30:11;;;;;;;10.50;8.05;;;;;;;31.07;32.58;100872.00;5124971;27;20043;-67
2021/07/22 09:32:40;;;;;;;13.43;8.50;;;;;;;31.72;32.68;100869.16;5118700;27;20039;-67
2021/07/22 09:35:12;;;;;;;11.40;8.43;;;;;;;32.16;31.65;100865.97;5119728;27;20052;-68
2021/07/22 09:37:42;;;;;;;12.85;8.88;;;;;;;32.60;30.73;100866.34;5115131;28;20055;-68
2021/07/22 09:40:11;;;;;;;11.82;8.52;;;;;;;33.04;29.58;100865.84;5121067;27;20058;-67
2021/07/22 09:42:43;;;;;;;11.20;8.88;;;;;;;33.34;27.73;100867.34;5134695;27;20514;-68
2021/07/22 09:45:15;;;;;;;11.20;8.70;;;;;;;33.53;28.77;100863.38;5121384;27;20043;-68
2021/07/22 09:47:42;;;;;;;10.65;8.75;;;;;;;33.91;27.32;100859.63;5121958;27;20055;-68
2021/07/22 09:50:14;;;;;;;13.15;8.05;;;;;;;34.43;27.43;100857.34;5135095;27;20050;-68
2021/07/22 09:52:42;;;;;;;10.90;8.82;;;;;;;34.74;26.18;100853.69;5127381;27;20047;-68
2021/07/22 09:55:24;;;;;;;12.77;10.02;;;;;;;35.07;24.16;100859.81;5124788;27;20055;-68
2021/07/22 09:57:54;;;;;;;14.02;10.45;;;;;;;35.73;23.77;100858.75;5114981;27;20058;-68
2021/07/22 10:00:23;;;;;;;12.25;9.00;;;;;;;37.65;22.78;100846.41;5116701;27;20467;-68
2021/07/22 10:02:51;;;;;;;;;;;;;;;37.75;21.65;100853.75;5129164;27;20051;-68
2021/07/22 10:05:22;;;;;;;10.20;8.98;;;;;;;38.40;21.44;100850.31;5116861;27;19920;-68
2021/07/22 10:07:52;;;;;;;12.98;9.15;;;;;;;37.93;21.12;100847.00;5114302;27;20050;-68
2021/07/22 10:10:21;;;;;;;12.60;9.07;;;;;;;37.50;22.04;100847.09;5124606;27;20047;-68
2021/07/22 10:12:54;;;;;;;10.50;8.55;;;;;;;36.84;23.25;100838.38;5122394;27;20051;-68
2021/07/22 10:15:22;;;;;;;9.20;8.20;;;;;;;36.30;23.93;100846.72;5122573;27;20467;-68
2021/07/22 10:17:51;;;;;;;;;;;;;;;35.58;24.15;100844.84;5122792;27;20051;-68
2021/07/22 10:20:22;;;;;;;9.73;8.70;;;;;;;35.17;24.98;100840.41;5121061;27;19920;-68
2021/07/22 10:22:49;;;;;;;12.32;8.45;;;;;;;34.90;26.43;100835.28;5134985;27;20047;-68
2021/07/22 10:25:17;;;;;;;9.57;8.57;;;;;;;34.59;26.09;100841.84;5127957;27;20044;-68
2021/07/22 10:27:45;;;;;;;11.40;9.30;;;;;;;34.29;26.00;100834.72;5121174;27;20472;-68
2021/07/22 10:30:14;;;;;;;11.15;8.82;;;;;;;34.51;25.72;100835.53;5118656;27;20778;-68
2021/07/22 10:32:47;;;;;;;12.50;10.13;;;;;;;34.46;25.90;100838.22;5117471;27;20039;-68
2021/07/22 10:35:17;;;;;;;11.35;8.95;;;;;;;34.50;24.78;100830.22;5126522;27;20039;-68
2021/07/22 10:38:09;;;;;;;10.55;9.13;;;;;;;34.51;25.77;100828.94;5130440;27;20042;-68
2021/07/22 10:40:47;;;;;;;11.88;9.88;;;;;;;35.53;24.65;100831.00;5129587;27;20048;-68
2021/07/22 10:43:34;;;;;;;;;;;;;;;36.98;23.60;100826.03;5118261;27;20380;-68
2021/07/22 10:46:02;;;;;;;9.75;8.75;;;;;;;38.77;20.85;100816.59;5125918;27;20371;-68
2021/07/22 10:48:30;;;;;;;10.13;8.65;;;;;;;40.10;19.36;100822.47;5125153;27;20460;-68
2021/07/22 10:51:04;;;;;;;11.18;9.40;;;;;;;41.15;17.57;100814.41;5132590;27;20062;-68
2021/07/22 10:53:54;;;;;;;18.35;10.98;;;;;;;43.11;15.45;100816.31;5117011;27;20058;-68
2021/07/22 10:56:52;;;;;;;11.98;9.27;;;;;;;43.13;16.08;100810.69;5118158;27;20051;-68
2021/07/22 10:59:19;;;;;;;10.45;8.55;;;;;;;42.81;16.31;100804.34;5114397;28;20480;-68
2021/07/22 11:01:56;;;;;;;10.57;9.57;;;;;;;43.63;16.21;100811.13;5114471;27;20507;-68
2021/07/22 11:04:45;;;;;;;12.35;8.95;;;;;;;44.47;14.71;100809.88;5113339;28;20040;-68
2021/07/22 11:07:33;;;;;;;10.40;9.27;;;;;;;45.60;14.39;100800.75;5113337;28;20047;-68
2021/07/22 11:10:01;;;;;;;9.68;8.73;;;;;;;46.15;13.27;100798.41;5113829;28;20059;-68
2021/07/22 11:12:44;;;;;;;10.27;9.10;;;;;;;46.42;13.45;100795.63;5113591;28;20055;-68
2021/07/22 11:15:15;;;;;;;10.57;7.93;;;;;;;45.81;13.90;100803.19;5114179;27;20510;-68
2021/07/22 11:17:47;;;;;;;9.88;8.88;;;;;;;44.37;14.56;100801.41;5115202;27;20059;-68
2021/07/22 11:20:33;;;;;;;10.23;9.05;;;;;;;43.89;15.13;100799.00;5129423;27;20441;-68
2021/07/22 11:23:15;;;;;;;11.35;8.23;;;;;;;43.16;15.74;100805.91;5123548;27;20059;-68
2021/07/22 11:25:50;;;;;;;9.98;8.90;;;;;;;41.58;16.71;100800.63;5114365;27;20497;-68
2021/07/22 11:28:24;;;;;;;11.50;9.02;;;;;;;41.68;16.74;100800.38;5113102;28;20063;-68